• Join FlightAware (Why Join?)
  • Login
  • US Flag 
10:46PM EDT


 

Airport Tracker/Info


-or-


 

Live Flight TrackerFlight Track Log ✈ LIA553 ✈ 22-Apr-2013 ✈ TQPF / AXA - TAPA / ANU

Flight Track Log - Related Links

Times and Time Zones

All times are in EDT time to prevent confusion due to time zone crossing. See the LIA553 flight status page for this flight to view local times or setup timezone preferences in your user account.

Time Position Orientation Groundspeed Altitude Reporting Facility
EDT Latitude Longitude Course Direction KTS MPH feet Rate Location/Type
03:12PM 17.5648 -62.4252 126° Southeast  Level FlightAware Approximate
03:13PM 17.5195 -62.3591 126° Southeast  Level FlightAware Approximate
03:14PM 17.4743 -62.2931 126° Southeast  Level FlightAware Approximate
03:15PM 17.4285 -62.2275 131° Southeast  Level FlightAware Approximate
03:16PM 17.3775 -62.1663 131° Southeast  Level FlightAware Approximate
03:17PM 17.3295 -62.1026 125° Southeast  Level FlightAware Approximate
03:18PM 17.2852 -62.0360 125° Southeast  Level FlightAware Approximate
03:19PM 17.2400 -61.9700 128° Southeast  Level FlightAware Approximate
03:20PM 17.1921 -61.9062 128° Southeast  Level FlightAware Approximate
03:21PM 17.1447 -61.8420 125° Southeast  Level FlightAware Approximate
03:22PM 17.1367 -61.7927 90° East  Level Estimated
03:23PM 17.1367 -61.7927 90° East  Level Estimated
03:24PM 17.1367 -61.7927 90° East  Level Estimated
03:25PM 17.1367 -61.7927 90° East  Level Estimated
03:26PM 17.1367 -61.7927 90° East  Level Estimated
03:27PM 17.1367 -61.7927 90° East  Level Estimated
03:28PM 17.1367 -61.7927 90° East  Level Estimated
03:29PM 17.1367 -61.7927 90° East  Level Estimated
03:30PM 17.1367 -61.7927 90° East  Level Estimated
03:31PM 17.1367 -61.7927 90° East  Level Estimated
03:32PM 17.1367 -61.7927 90° East  Level Estimated
03:33PM 17.1367 -61.7927 90° East  Level Estimated
03:34PM 17.1367 -61.7927 90° East  Level Estimated
03:35PM 17.1367 -61.7927 90° East  Level Estimated
03:36PM 17.1367 -61.7927 90° East  Level Estimated
03:37PM 17.1367 -61.7927 90° East  Level Estimated
03:38PM 17.1367 -61.7927 90° East  Level Estimated